VIJP/JAI METAR and TAF weather

Enter ICAO airport designator
Station Type Date Time Source
VIJP METAR 2019/12/08 07:00 UTC NOAA

VIJP 080700Z VRB03KT 1500 R27/1600 RMID/1900 R09/1600 FU NSC 21/06 Q1020 NOSIG


Station Type Date Time Source
VIJP Decoded METAR 2019/12/08 07:00 UTC NOAA

Jaipur / Sanganer, India (VIJP) 26-49N 075-48E 390M
Dec 08, 2019 - 02:00 AM EST / 2019.12.08 0700 UTC
Wind: Variable at 3 MPH (3 KT):0
Visibility: less than 1 mile:0
Weather: smoke
Temperature: 69 F (21 C)
Dew Point: 42 F (6 C)
Relative Humidity: 37%
Pressure (altimeter): 30.12 in. Hg (1020 hPa)
ob: VIJP 080700Z VRB03KT 1500 R27/1600 RMID/1900 R09/1600 FU NSC 21/06 Q1020 NOSIG
cycle: 7

Station Type Date Time Source
VIJP TAF 2019/12/08 06:00 UTC NOAA

TAF VIJP 080500Z 0806/0912 07005KT 2000 HZ FU FEW100
BECMG 0811/0813 VRB03KT 1500 FU HZ
BECMG 0900/0902 VRB02KT 1000 FU BR
BECMG 0902/0904 VRB02KT 0800 MIFG
BECMG 0906/0907 05005KT 2000 HZ FU

Example: see airport list